sensor_id;sensor_type;location;lat;lon;timestamp;P1;durP1;ratioP1;P2;durP2;ratioP2
26965;SDS011;14522;52.068;4.414;2022-10-10T00:00:35;5.18;;;2.10;;
26965;SDS011;14522;52.068;4.414;2022-10-10T00:03:01;4.18;;;1.80;;
26965;SDS011;14522;52.068;4.414;2022-10-10T00:05:27;3.95;;;1.95;;
26965;SDS011;14522;52.068;4.414;2022-10-10T00:07:54;5.40;;;1.70;;
26965;SDS011;14522;52.068;4.414;2022-10-10T00:10:20;3.00;;;1.40;;
26965;SDS011;14522;52.068;4.414;2022-10-10T00:12:47;3.42;;;2.30;;
26965;SDS011;14522;52.068;4.414;2022-10-10T00:15:14;3.63;;;1.83;;
26965;SDS011;14522;52.068;4.414;2022-10-10T00:17:41;4.68;;;2.20;;
26965;SDS011;14522;52.068;4.414;2022-10-10T00:20:12;2.95;;;1.90;;
26965;SDS011;14522;52.068;4.414;2022-10-10T00:22:39;2.78;;;1.40;;
26965;SDS011;14522;52.068;4.414;2022-10-10T00:25:06;5.03;;;1.83;;
26965;SDS011;14522;52.068;4.414;2022-10-10T00:27:33;6.32;;;2.15;;
26965;SDS011;14522;52.068;4.414;2022-10-10T00:29:59;4.00;;;2.22;;
26965;SDS011;14522;52.068;4.414;2022-10-10T00:32:26;4.88;;;1.67;;
26965;SDS011;14522;52.068;4.414;2022-10-10T00:34:52;5.13;;;1.85;;
26965;SDS011;14522;52.068;4.414;2022-10-10T00:37:18;3.08;;;1.60;;
26965;SDS011;14522;52.068;4.414;2022-10-10T00:39:45;4.03;;;2.47;;
26965;SDS011;14522;52.068;4.414;2022-10-10T00:42:12;3.17;;;1.85;;
26965;SDS011;14522;52.068;4.414;2022-10-10T00:44:39;2.92;;;2.00;;
26965;SDS011;14522;52.068;4.414;2022-10-10T00:47:06;3.53;;;1.65;;
26965;SDS011;14522;52.068;4.414;2022-10-10T00:49:32;4.10;;;2.17;;
26965;SDS011;14522;52.068;4.414;2022-10-10T00:52:01;5.13;;;1.98;;
26965;SDS011;14522;52.068;4.414;2022-10-10T00:54:28;3.53;;;1.70;;
26965;SDS011;14522;52.068;4.414;2022-10-10T00:56:57;3.72;;;1.90;;
26965;SDS011;14522;52.068;4.414;2022-10-10T00:59:25;5.82;;;2.05;;
26965;SDS011;14522;52.068;4.414;2022-10-10T01:01:55;3.75;;;1.83;;
26965;SDS011;14522;52.068;4.414;2022-10-10T01:04:40;4.72;;;1.65;;
26965;SDS011;14522;52.068;4.414;2022-10-10T01:07:14;5.32;;;2.15;;
26965;SDS011;14522;52.068;4.414;2022-10-10T01:09:42;6.70;;;2.30;;
26965;SDS011;14522;52.068;4.414;2022-10-10T01:17:23;3.60;;;1.58;;
26965;SDS011;14522;52.068;4.414;2022-10-10T01:22:25;4.65;;;2.20;;
26965;SDS011;14522;52.068;4.414;2022-10-10T01:27:45;4.27;;;2.20;;
26965;SDS011;14522;52.068;4.414;2022-10-10T01:30:13;6.75;;;2.38;;
26965;SDS011;14522;52.068;4.414;2022-10-10T01:40:35;7.63;;;2.65;;
26965;SDS011;14522;52.068;4.414;2022-10-10T01:43:05;3.70;;;1.48;;
26965;SDS011;14522;52.068;4.414;2022-10-10T01:45:32;6.18;;;3.28;;
26965;SDS011;14522;52.068;4.414;2022-10-10T01:48:00;5.40;;;2.30;;
26965;SDS011;14522;52.068;4.414;2022-10-10T01:50:28;5.10;;;2.35;;
26965;SDS011;14522;52.068;4.414;2022-10-10T02:01:15;4.72;;;2.30;;
26965;SDS011;14522;52.068;4.414;2022-10-10T02:03:36;4.03;;;2.45;;
26965;SDS011;14522;52.068;4.414;2022-10-10T02:06:14;7.07;;;2.38;;
26965;SDS011;14522;52.068;4.414;2022-10-10T02:08:46;8.32;;;2.35;;
26965;SDS011;14522;52.068;4.414;2022-10-10T02:11:13;7.13;;;2.58;;
26965;SDS011;14522;52.068;4.414;2022-10-10T02:13:43;4.55;;;2.03;;
26965;SDS011;14522;52.068;4.414;2022-10-10T02:16:15;4.95;;;1.90;;
26965;SDS011;14522;52.068;4.414;2022-10-10T02:18:42;3.10;;;2.40;;
26965;SDS011;14522;52.068;4.414;2022-10-10T02:21:13;3.17;;;1.83;;
26965;SDS011;14522;52.068;4.414;2022-10-10T02:23:41;10.82;;;3.05;;
26965;SDS011;14522;52.068;4.414;2022-10-10T02:26:09;6.65;;;2.58;;
26965;SDS011;14522;52.068;4.414;2022-10-10T02:31:03;6.18;;;2.67;;
26965;SDS011;14522;52.068;4.414;2022-10-10T02:33:32;5.78;;;2.35;;
26965;SDS011;14522;52.068;4.414;2022-10-10T02:36:01;4.63;;;1.95;;
26965;SDS011;14522;52.068;4.414;2022-10-10T02:38:28;4.57;;;2.25;;
26965;SDS011;14522;52.068;4.414;2022-10-10T02:40:54;7.55;;;2.72;;
26965;SDS011;14522;52.068;4.414;2022-10-10T02:43:22;5.47;;;3.00;;
26965;SDS011;14522;52.068;4.414;2022-10-10T02:45:48;4.38;;;2.00;;
26965;SDS011;14522;52.068;4.414;2022-10-10T02:48:15;4.85;;;2.53;;
26965;SDS011;14522;52.068;4.414;2022-10-10T02:50:41;4.18;;;2.50;;
26965;SDS011;14522;52.068;4.414;2022-10-10T02:53:08;3.10;;;2.22;;
26965;SDS011;14522;52.068;4.414;2022-10-10T02:55:34;5.15;;;2.67;;
26965;SDS011;14522;52.068;4.414;2022-10-10T02:58:00;7.18;;;2.58;;
26965;SDS011;14522;52.068;4.414;2022-10-10T03:00:26;3.67;;;2.03;;
26965;SDS011;14522;52.068;4.414;2022-10-10T03:02:53;3.97;;;2.08;;
26965;SDS011;14522;52.068;4.414;2022-10-10T03:05:21;4.65;;;2.17;;
26965;SDS011;14522;52.068;4.414;2022-10-10T03:07:47;8.57;;;2.33;;
26965;SDS011;14522;52.068;4.414;2022-10-10T03:10:13;3.40;;;1.98;;
26965;SDS011;14522;52.068;4.414;2022-10-10T03:12:40;6.10;;;2.65;;
26965;SDS011;14522;52.068;4.414;2022-10-10T03:15:06;5.00;;;2.03;;
26965;SDS011;14522;52.068;4.414;2022-10-10T03:17:37;4.70;;;1.80;;
26965;SDS011;14522;52.068;4.414;2022-10-10T03:20:03;5.32;;;2.72;;
26965;SDS011;14522;52.068;4.414;2022-10-10T03:22:30;3.13;;;1.52;;
26965;SDS011;14522;52.068;4.414;2022-10-10T03:24:56;5.25;;;2.95;;
26965;SDS011;14522;52.068;4.414;2022-10-10T03:27:22;4.13;;;2.35;;
26965;SDS011;14522;52.068;4.414;2022-10-10T03:29:49;5.82;;;2.63;;
26965;SDS011;14522;52.068;4.414;2022-10-10T03:32:15;7.88;;;3.08;;
26965;SDS011;14522;52.068;4.414;2022-10-10T03:34:41;4.80;;;2.88;;
26965;SDS011;14522;52.068;4.414;2022-10-10T03:37:08;7.90;;;3.20;;
26965;SDS011;14522;52.068;4.414;2022-10-10T03:39:34;4.28;;;2.53;;
26965;SDS011;14522;52.068;4.414;2022-10-10T03:42:00;4.78;;;2.30;;
26965;SDS011;14522;52.068;4.414;2022-10-10T03:44:28;10.05;;;2.70;;
26965;SDS011;14522;52.068;4.414;2022-10-10T03:46:55;5.47;;;2.50;;
26965;SDS011;14522;52.068;4.414;2022-10-10T03:49:21;3.63;;;1.80;;
26965;SDS011;14522;52.068;4.414;2022-10-10T03:51:47;4.38;;;1.90;;
26965;SDS011;14522;52.068;4.414;2022-10-10T03:54:14;5.45;;;3.17;;
26965;SDS011;14522;52.068;4.414;2022-10-10T03:56:40;4.57;;;2.00;;
26965;SDS011;14522;52.068;4.414;2022-10-10T03:59:06;8.10;;;2.50;;
26965;SDS011;14522;52.068;4.414;2022-10-10T04:01:33;6.68;;;2.60;;
26965;SDS011;14522;52.068;4.414;2022-10-10T04:03:59;4.30;;;2.20;;
26965;SDS011;14522;52.068;4.414;2022-10-10T04:06:25;5.18;;;2.40;;
26965;SDS011;14522;52.068;4.414;2022-10-10T04:08:53;5.22;;;2.78;;
26965;SDS011;14522;52.068;4.414;2022-10-10T04:11:19;5.53;;;2.42;;
26965;SDS011;14522;52.068;4.414;2022-10-10T04:13:46;5.72;;;2.47;;
26965;SDS011;14522;52.068;4.414;2022-10-10T04:16:12;6.63;;;2.65;;
26965;SDS011;14522;52.068;4.414;2022-10-10T04:18:39;7.93;;;2.63;;
26965;SDS011;14522;52.068;4.414;2022-10-10T04:21:05;4.45;;;2.20;;
26965;SDS011;14522;52.068;4.414;2022-10-10T04:23:32;5.13;;;2.38;;
26965;SDS011;14522;52.068;4.414;2022-10-10T04:25:58;5.45;;;2.85;;
26965;SDS011;14522;52.068;4.414;2022-10-10T04:28:24;5.82;;;2.83;;
26965;SDS011;14522;52.068;4.414;2022-10-10T04:30:51;17.33;;;2.97;;
26965;SDS011;14522;52.068;4.414;2022-10-10T04:33:17;6.65;;;2.30;;
26965;SDS011;14522;52.068;4.414;2022-10-10T04:35:45;7.95;;;3.10;;
26965;SDS011;14522;52.068;4.414;2022-10-10T04:38:12;4.13;;;2.53;;
26965;SDS011;14522;52.068;4.414;2022-10-10T04:40:38;7.20;;;2.78;;
26965;SDS011;14522;52.068;4.414;2022-10-10T04:43:04;7.00;;;3.50;;
26965;SDS011;14522;52.068;4.414;2022-10-10T04:45:31;5.20;;;2.15;;
26965;SDS011;14522;52.068;4.414;2022-10-10T04:48:02;4.43;;;2.42;;
26965;SDS011;14522;52.068;4.414;2022-10-10T04:50:29;4.90;;;2.38;;
26965;SDS011;14522;52.068;4.414;2022-10-10T04:52:55;4.18;;;2.58;;
26965;SDS011;14522;52.068;4.414;2022-10-10T04:55:22;11.57;;;3.25;;
26965;SDS011;14522;52.068;4.414;2022-10-10T04:57:48;10.65;;;3.05;;
26965;SDS011;14522;52.068;4.414;2022-10-10T05:00:14;3.88;;;2.67;;
26965;SDS011;14522;52.068;4.414;2022-10-10T05:02:40;7.50;;;2.38;;
26965;SDS011;14522;52.068;4.414;2022-10-10T05:05:07;4.25;;;2.75;;
26965;SDS011;14522;52.068;4.414;2022-10-10T05:07:34;3.42;;;2.10;;
26965;SDS011;14522;52.068;4.414;2022-10-10T05:10:00;4.15;;;2.35;;
26965;SDS011;14522;52.068;4.414;2022-10-10T05:12:27;7.65;;;2.88;;
26965;SDS011;14522;52.068;4.414;2022-10-10T05:14:53;6.18;;;2.80;;
26965;SDS011;14522;52.068;4.414;2022-10-10T05:17:19;5.75;;;3.17;;
26965;SDS011;14522;52.068;4.414;2022-10-10T05:19:46;7.15;;;2.80;;
26965;SDS011;14522;52.068;4.414;2022-10-10T05:22:12;5.57;;;2.60;;
26965;SDS011;14522;52.068;4.414;2022-10-10T05:24:38;5.35;;;2.75;;
26965;SDS011;14522;52.068;4.414;2022-10-10T05:27:05;4.03;;;2.80;;
26965;SDS011;14522;52.068;4.414;2022-10-10T05:29:31;7.53;;;2.63;;
26965;SDS011;14522;52.068;4.414;2022-10-10T05:31:58;4.07;;;2.38;;
26965;SDS011;14522;52.068;4.414;2022-10-10T05:34:24;2.42;;;1.73;;
26965;SDS011;14522;52.068;4.414;2022-10-10T05:36:50;6.50;;;2.72;;
26965;SDS011;14522;52.068;4.414;2022-10-10T05:39:17;5.72;;;2.95;;
26965;SDS011;14522;52.068;4.414;2022-10-10T05:41:43;11.23;;;2.83;;
26965;SDS011;14522;52.068;4.414;2022-10-10T05:44:09;6.60;;;2.92;;
26965;SDS011;14522;52.068;4.414;2022-10-10T05:46:36;4.30;;;2.20;;
26965;SDS011;14522;52.068;4.414;2022-10-10T05:49:03;8.32;;;3.95;;
26965;SDS011;14522;52.068;4.414;2022-10-10T05:51:29;4.25;;;2.35;;
26965;SDS011;14522;52.068;4.414;2022-10-10T05:53:55;5.25;;;2.17;;
26965;SDS011;14522;52.068;4.414;2022-10-10T05:56:22;15.07;;;3.40;;
26965;SDS011;14522;52.068;4.414;2022-10-10T05:58:49;6.20;;;2.63;;
26965;SDS011;14522;52.068;4.414;2022-10-10T06:01:16;4.03;;;2.88;;
26965;SDS011;14522;52.068;4.414;2022-10-10T06:03:43;4.82;;;2.30;;
26965;SDS011;14522;52.068;4.414;2022-10-10T06:06:09;6.03;;;2.60;;
26965;SDS011;14522;52.068;4.414;2022-10-10T06:08:35;9.57;;;3.45;;
26965;SDS011;14522;52.068;4.414;2022-10-10T06:11:03;6.70;;;2.42;;
26965;SDS011;14522;52.068;4.414;2022-10-10T06:13:30;4.65;;;2.47;;
26965;SDS011;14522;52.068;4.414;2022-10-10T06:15:56;8.13;;;2.92;;
26965;SDS011;14522;52.068;4.414;2022-10-10T06:18:23;8.40;;;3.03;;
26965;SDS011;14522;52.068;4.414;2022-10-10T06:20:49;8.25;;;3.00;;
26965;SDS011;14522;52.068;4.414;2022-10-10T06:23:16;8.07;;;2.92;;
26965;SDS011;14522;52.068;4.414;2022-10-10T06:25:43;6.75;;;2.58;;
26965;SDS011;14522;52.068;4.414;2022-10-10T06:28:09;6.35;;;2.67;;
26965;SDS011;14522;52.068;4.414;2022-10-10T06:30:42;7.35;;;3.22;;
26965;SDS011;14522;52.068;4.414;2022-10-10T06:33:10;5.70;;;2.45;;
26965;SDS011;14522;52.068;4.414;2022-10-10T06:35:40;7.57;;;2.58;;
26965;SDS011;14522;52.068;4.414;2022-10-10T06:38:07;6.78;;;2.40;;
26965;SDS011;14522;52.068;4.414;2022-10-10T06:40:33;4.30;;;2.72;;
26965;SDS011;14522;52.068;4.414;2022-10-10T06:42:59;7.38;;;3.13;;
26965;SDS011;14522;52.068;4.414;2022-10-10T06:45:26;8.85;;;3.35;;
26965;SDS011;14522;52.068;4.414;2022-10-10T06:47:52;6.95;;;2.97;;
26965;SDS011;14522;52.068;4.414;2022-10-10T06:50:18;6.70;;;2.92;;
26965;SDS011;14522;52.068;4.414;2022-10-10T06:52:45;8.38;;;3.70;;
26965;SDS011;14522;52.068;4.414;2022-10-10T06:55:11;12.50;;;3.42;;
26965;SDS011;14522;52.068;4.414;2022-10-10T06:57:37;6.72;;;2.65;;
26965;SDS011;14522;52.068;4.414;2022-10-10T07:00:04;9.75;;;3.47;;
26965;SDS011;14522;52.068;4.414;2022-10-10T07:02:30;10.13;;;3.08;;
26965;SDS011;14522;52.068;4.414;2022-10-10T07:04:57;6.97;;;3.10;;
26965;SDS011;14522;52.068;4.414;2022-10-10T07:07:23;10.00;;;2.78;;
26965;SDS011;14522;52.068;4.414;2022-10-10T07:09:49;8.77;;;3.92;;
26965;SDS011;14522;52.068;4.414;2022-10-10T07:12:16;4.28;;;3.20;;
26965;SDS011;14522;52.068;4.414;2022-10-10T07:14:42;11.40;;;3.67;;
26965;SDS011;14522;52.068;4.414;2022-10-10T07:17:08;8.98;;;3.70;;
26965;SDS011;14522;52.068;4.414;2022-10-10T07:19:35;10.15;;;2.92;;
26965;SDS011;14522;52.068;4.414;2022-10-10T07:22:02;6.15;;;2.63;;
26965;SDS011;14522;52.068;4.414;2022-10-10T07:24:28;9.32;;;3.13;;
26965;SDS011;14522;52.068;4.414;2022-10-10T07:26:54;6.20;;;3.47;;
26965;SDS011;14522;52.068;4.414;2022-10-10T07:29:31;6.88;;;3.22;;
26965;SDS011;14522;52.068;4.414;2022-10-10T07:31:58;8.68;;;3.33;;
26965;SDS011;14522;52.068;4.414;2022-10-10T07:34:24;7.60;;;2.78;;
26965;SDS011;14522;52.068;4.414;2022-10-10T07:36:51;5.68;;;3.10;;
26965;SDS011;14522;52.068;4.414;2022-10-10T07:39:20;6.10;;;3.92;;
26965;SDS011;14522;52.068;4.414;2022-10-10T07:41:48;9.95;;;4.72;;
26965;SDS011;14522;52.068;4.414;2022-10-10T07:44:14;6.72;;;3.92;;
26965;SDS011;14522;52.068;4.414;2022-10-10T07:46:41;5.45;;;3.20;;
26965;SDS011;14522;52.068;4.414;2022-10-10T07:49:07;9.65;;;4.18;;
26965;SDS011;14522;52.068;4.414;2022-10-10T07:51:34;9.02;;;3.17;;
26965;SDS011;14522;52.068;4.414;2022-10-10T07:54:00;9.95;;;4.00;;
26965;SDS011;14522;52.068;4.414;2022-10-10T07:56:27;17.77;;;4.55;;
26965;SDS011;14522;52.068;4.414;2022-10-10T07:58:53;6.55;;;3.70;;
26965;SDS011;14522;52.068;4.414;2022-10-10T08:01:19;14.10;;;4.72;;
26965;SDS011;14522;52.068;4.414;2022-10-10T08:03:46;12.98;;;4.03;;
26965;SDS011;14522;52.068;4.414;2022-10-10T08:06:13;7.75;;;3.97;;
26965;SDS011;14522;52.068;4.414;2022-10-10T08:08:40;12.65;;;4.47;;
26965;SDS011;14522;52.068;4.414;2022-10-10T08:11:16;11.40;;;4.45;;
26965;SDS011;14522;52.068;4.414;2022-10-10T08:13:43;9.75;;;3.78;;
26965;SDS011;14522;52.068;4.414;2022-10-10T08:16:09;11.23;;;4.38;;
26965;SDS011;14522;52.068;4.414;2022-10-10T08:18:36;10.07;;;4.07;;
26965;SDS011;14522;52.068;4.414;2022-10-10T08:21:04;15.60;;;4.20;;
26965;SDS011;14522;52.068;4.414;2022-10-10T08:23:30;15.43;;;4.10;;
26965;SDS011;14522;52.068;4.414;2022-10-10T08:25:58;14.88;;;4.35;;
26965;SDS011;14522;52.068;4.414;2022-10-10T08:28:25;14.88;;;4.45;;
26965;SDS011;14522;52.068;4.414;2022-10-10T08:30:52;13.07;;;4.15;;
26965;SDS011;14522;52.068;4.414;2022-10-10T08:33:18;8.52;;;2.80;;
26965;SDS011;14522;52.068;4.414;2022-10-10T08:35:44;9.90;;;3.63;;
26965;SDS011;14522;52.068;4.414;2022-10-10T08:38:11;6.22;;;2.63;;
26965;SDS011;14522;52.068;4.414;2022-10-10T08:40:43;13.27;;;4.40;;
26965;SDS011;14522;52.068;4.414;2022-10-10T08:43:10;8.05;;;3.00;;
26965;SDS011;14522;52.068;4.414;2022-10-10T08:45:42;5.25;;;2.28;;
26965;SDS011;14522;52.068;4.414;2022-10-10T08:48:10;9.82;;;4.07;;
26965;SDS011;14522;52.068;4.414;2022-10-10T08:50:42;10.52;;;2.45;;
26965;SDS011;14522;52.068;4.414;2022-10-10T08:53:30;10.57;;;3.75;;
26965;SDS011;14522;52.068;4.414;2022-10-10T08:55:58;12.32;;;3.72;;
26965;SDS011;14522;52.068;4.414;2022-10-10T08:58:38;7.05;;;3.25;;
26965;SDS011;14522;52.068;4.414;2022-10-10T09:03:43;11.77;;;3.78;;
26965;SDS011;14522;52.068;4.414;2022-10-10T09:20:02;11.60;;;4.47;;
26965;SDS011;14522;52.068;4.414;2022-10-10T09:22:38;16.27;;;4.00;;
26965;SDS011;14522;52.068;4.414;2022-10-10T09:25:17;8.32;;;4.03;;
26965;SDS011;14522;52.068;4.414;2022-10-10T09:27:45;11.65;;;3.33;;
26965;SDS011;14522;52.068;4.414;2022-10-10T09:30:13;8.32;;;3.20;;
26965;SDS011;14522;52.068;4.414;2022-10-10T09:32:43;8.18;;;2.88;;
26965;SDS011;14522;52.068;4.414;2022-10-10T09:35:13;7.15;;;3.40;;
26965;SDS011;14522;52.068;4.414;2022-10-10T09:37:40;12.63;;;4.18;;
26965;SDS011;14522;52.068;4.414;2022-10-10T09:42:47;8.85;;;3.58;;
26965;SDS011;14522;52.068;4.414;2022-10-10T09:47:44;9.55;;;3.67;;
26965;SDS011;14522;52.068;4.414;2022-10-10T09:50:14;6.28;;;2.40;;
26965;SDS011;14522;52.068;4.414;2022-10-10T09:52:41;10.85;;;4.35;;
26965;SDS011;14522;52.068;4.414;2022-10-10T09:55:17;10.80;;;3.40;;
26965;SDS011;14522;52.068;4.414;2022-10-10T09:57:45;18.85;;;4.38;;
26965;SDS011;14522;52.068;4.414;2022-10-10T10:03:04;10.02;;;3.65;;
26965;SDS011;14522;52.068;4.414;2022-10-10T10:05:31;9.10;;;3.22;;
26965;SDS011;14522;52.068;4.414;2022-10-10T10:07:57;8.90;;;3.65;;
26965;SDS011;14522;52.068;4.414;2022-10-10T10:10:24;13.52;;;3.63;;
26965;SDS011;14522;52.068;4.414;2022-10-10T10:12:52;4.38;;;1.90;;
26965;SDS011;14522;52.068;4.414;2022-10-10T10:20:46;5.45;;;2.30;;
26965;SDS011;14522;52.068;4.414;2022-10-10T10:23:30;9.60;;;2.85;;
26965;SDS011;14522;52.068;4.414;2022-10-10T10:25:57;9.85;;;3.28;;
26965;SDS011;14522;52.068;4.414;2022-10-10T10:28:25;12.95;;;3.55;;
26965;SDS011;14522;52.068;4.414;2022-10-10T10:30:52;9.77;;;3.05;;
26965;SDS011;14522;52.068;4.414;2022-10-10T10:41:16;10.75;;;3.72;;
26965;SDS011;14522;52.068;4.414;2022-10-10T10:54:07;15.15;;;3.17;;
26965;SDS011;14522;52.068;4.414;2022-10-10T10:56:39;12.77;;;2.85;;
26965;SDS011;14522;52.068;4.414;2022-10-10T11:04:25;4.70;;;1.73;;
26965;SDS011;14522;52.068;4.414;2022-10-10T11:07:20;5.57;;;1.90;;
26965;SDS011;14522;52.068;4.414;2022-10-10T11:15:05;4.45;;;1.13;;
26965;SDS011;14522;52.068;4.414;2022-10-10T11:17:37;5.07;;;1.20;;
26965;SDS011;14522;52.068;4.414;2022-10-10T11:20:05;5.25;;;1.00;;
26965;SDS011;14522;52.068;4.414;2022-10-10T11:22:39;6.15;;;1.27;;
26965;SDS011;14522;52.068;4.414;2022-10-10T11:25:17;6.20;;;1.35;;
26965;SDS011;14522;52.068;4.414;2022-10-10T11:27:45;6.57;;;1.10;;
26965;SDS011;14522;52.068;4.414;2022-10-10T11:30:14;5.28;;;0.90;;
26965;SDS011;14522;52.068;4.414;2022-10-10T11:32:46;2.67;;;1.10;;
26965;SDS011;14522;52.068;4.414;2022-10-10T11:35:16;4.30;;;0.90;;
26965;SDS011;14522;52.068;4.414;2022-10-10T11:37:44;3.33;;;1.02;;
26965;SDS011;14522;52.068;4.414;2022-10-10T11:40:19;2.45;;;0.80;;
26965;SDS011;14522;52.068;4.414;2022-10-10T11:42:48;8.50;;;0.90;;
26965;SDS011;14522;52.068;4.414;2022-10-10T11:45:20;6.78;;;1.05;;
26965;SDS011;14522;52.068;4.414;2022-10-10T11:47:57;1.58;;;0.70;;
26965;SDS011;14522;52.068;4.414;2022-10-10T11:50:37;5.15;;;0.90;;
26965;SDS011;14522;52.068;4.414;2022-10-10T12:12:57;1.25;;;0.40;;
26965;SDS011;14522;52.068;4.414;2022-10-10T12:15:29;2.83;;;0.25;;
26965;SDS011;14522;52.068;4.414;2022-10-10T12:17:57;1.02;;;0.50;;
26965;SDS011;14522;52.068;4.414;2022-10-10T12:25:41;0.75;;;0.30;;
26965;SDS011;14522;52.068;4.414;2022-10-10T12:35:50;2.42;;;0.35;;
26965;SDS011;14522;52.068;4.414;2022-10-10T12:38:21;3.25;;;0.45;;
26965;SDS011;14522;52.068;4.414;2022-10-10T12:41:07;3.05;;;0.30;;
26965;SDS011;14522;52.068;4.414;2022-10-10T12:43:39;2.95;;;0.60;;
26965;SDS011;14522;52.068;4.414;2022-10-10T12:46:07;4.32;;;0.45;;
26965;SDS011;14522;52.068;4.414;2022-10-10T12:48:34;4.78;;;0.70;;
26965;SDS011;14522;52.068;4.414;2022-10-10T12:51:01;3.60;;;0.50;;
26965;SDS011;14522;52.068;4.414;2022-10-10T12:53:29;8.63;;;0.70;;
26965;SDS011;14522;52.068;4.414;2022-10-10T12:55:57;4.75;;;0.50;;
26965;SDS011;14522;52.068;4.414;2022-10-10T13:00:57;3.65;;;0.50;;
26965;SDS011;14522;52.068;4.414;2022-10-10T13:05:53;2.45;;;0.50;;
26965;SDS011;14522;52.068;4.414;2022-10-10T13:08:24;3.83;;;0.57;;
26965;SDS011;14522;52.068;4.414;2022-10-10T13:13:33;2.22;;;0.60;;
26965;SDS011;14522;52.068;4.414;2022-10-10T13:16:08;6.18;;;0.90;;
26965;SDS011;14522;52.068;4.414;2022-10-10T13:18:35;6.47;;;1.10;;
26965;SDS011;14522;52.068;4.414;2022-10-10T13:21:02;6.80;;;1.20;;
26965;SDS011;14522;52.068;4.414;2022-10-10T13:23:30;7.45;;;1.15;;
26965;SDS011;14522;52.068;4.414;2022-10-10T13:25:57;11.70;;;1.58;;
26965;SDS011;14522;52.068;4.414;2022-10-10T13:28:24;19.05;;;1.95;;
26965;SDS011;14522;52.068;4.414;2022-10-10T13:30:50;13.73;;;1.58;;
26965;SDS011;14522;52.068;4.414;2022-10-10T13:33:18;12.32;;;1.67;;
26965;SDS011;14522;52.068;4.414;2022-10-10T13:35:45;9.25;;;1.20;;
26965;SDS011;14522;52.068;4.414;2022-10-10T13:38:12;12.30;;;1.63;;
26965;SDS011;14522;52.068;4.414;2022-10-10T13:40:40;16.02;;;1.70;;
26965;SDS011;14522;52.068;4.414;2022-10-10T13:43:12;12.32;;;1.42;;
26965;SDS011;14522;52.068;4.414;2022-10-10T13:46:16;10.23;;;1.50;;
26965;SDS011;14522;52.068;4.414;2022-10-10T13:53:32;9.43;;;1.83;;
26965;SDS011;14522;52.068;4.414;2022-10-10T13:58:26;6.60;;;0.82;;
26965;SDS011;14522;52.068;4.414;2022-10-10T14:00:56;8.10;;;1.38;;
26965;SDS011;14522;52.068;4.414;2022-10-10T14:03:23;8.40;;;1.25;;
26965;SDS011;14522;52.068;4.414;2022-10-10T14:05:50;7.78;;;1.40;;
26965;SDS011;14522;52.068;4.414;2022-10-10T14:08:23;14.20;;;1.60;;
26965;SDS011;14522;52.068;4.414;2022-10-10T14:10:58;19.85;;;2.15;;
26965;SDS011;14522;52.068;4.414;2022-10-10T14:13:25;8.55;;;1.30;;
26965;SDS011;14522;52.068;4.414;2022-10-10T14:15:52;11.45;;;1.90;;
26965;SDS011;14522;52.068;4.414;2022-10-10T14:18:23;8.57;;;1.38;;
26965;SDS011;14522;52.068;4.414;2022-10-10T14:20:50;12.15;;;2.00;;
26965;SDS011;14522;52.068;4.414;2022-10-10T14:23:16;8.95;;;1.17;;
26965;SDS011;14522;52.068;4.414;2022-10-10T14:25:45;8.05;;;1.08;;
26965;SDS011;14522;52.068;4.414;2022-10-10T14:28:19;10.52;;;1.40;;
26965;SDS011;14522;52.068;4.414;2022-10-10T14:30:46;7.93;;;1.50;;
26965;SDS011;14522;52.068;4.414;2022-10-10T14:33:14;5.95;;;0.90;;
26965;SDS011;14522;52.068;4.414;2022-10-10T14:35:40;12.73;;;1.65;;
26965;SDS011;14522;52.068;4.414;2022-10-10T14:38:10;6.30;;;0.95;;
26965;SDS011;14522;52.068;4.414;2022-10-10T14:40:37;12.40;;;1.60;;
26965;SDS011;14522;52.068;4.414;2022-10-10T14:43:04;7.88;;;1.23;;
26965;SDS011;14522;52.068;4.414;2022-10-10T14:45:30;12.10;;;1.67;;
26965;SDS011;14522;52.068;4.414;2022-10-10T14:47:57;8.93;;;1.63;;
26965;SDS011;14522;52.068;4.414;2022-10-10T14:50:29;7.82;;;1.30;;
26965;SDS011;14522;52.068;4.414;2022-10-10T14:52:55;11.18;;;1.30;;
26965;SDS011;14522;52.068;4.414;2022-10-10T14:55:22;11.15;;;1.42;;
26965;SDS011;14522;52.068;4.414;2022-10-10T14:57:48;12.57;;;1.13;;
26965;SDS011;14522;52.068;4.414;2022-10-10T15:00:19;10.57;;;1.75;;
26965;SDS011;14522;52.068;4.414;2022-10-10T15:02:46;7.55;;;1.52;;
26965;SDS011;14522;52.068;4.414;2022-10-10T15:05:13;7.45;;;1.00;;
26965;SDS011;14522;52.068;4.414;2022-10-10T15:07:39;11.30;;;1.40;;
26965;SDS011;14522;52.068;4.414;2022-10-10T15:10:06;8.73;;;1.38;;
26965;SDS011;14522;52.068;4.414;2022-10-10T15:12:53;9.07;;;0.90;;
26965;SDS011;14522;52.068;4.414;2022-10-10T15:15:20;5.57;;;1.10;;
26965;SDS011;14522;52.068;4.414;2022-10-10T15:17:46;7.35;;;1.50;;
26965;SDS011;14522;52.068;4.414;2022-10-10T15:20:12;8.68;;;1.40;;
26965;SDS011;14522;52.068;4.414;2022-10-10T15:22:39;9.80;;;1.60;;
26965;SDS011;14522;52.068;4.414;2022-10-10T15:25:05;9.43;;;1.60;;
26965;SDS011;14522;52.068;4.414;2022-10-10T15:27:32;9.02;;;1.85;;
26965;SDS011;14522;52.068;4.414;2022-10-10T15:29:58;7.90;;;1.33;;
26965;SDS011;14522;52.068;4.414;2022-10-10T15:32:25;24.77;;;1.80;;
26965;SDS011;14522;52.068;4.414;2022-10-10T15:34:52;10.10;;;1.58;;
26965;SDS011;14522;52.068;4.414;2022-10-10T15:37:18;12.82;;;1.50;;
26965;SDS011;14522;52.068;4.414;2022-10-10T15:39:44;12.48;;;1.63;;
26965;SDS011;14522;52.068;4.414;2022-10-10T15:42:11;12.18;;;1.42;;
26965;SDS011;14522;52.068;4.414;2022-10-10T15:44:58;10.32;;;2.13;;
26965;SDS011;14522;52.068;4.414;2022-10-10T15:47:24;10.55;;;1.30;;
26965;SDS011;14522;52.068;4.414;2022-10-10T15:49:51;11.23;;;1.15;;
26965;SDS011;14522;52.068;4.414;2022-10-10T15:52:17;8.40;;;1.88;;
26965;SDS011;14522;52.068;4.414;2022-10-10T15:54:46;12.52;;;1.52;;
26965;SDS011;14522;52.068;4.414;2022-10-10T15:57:13;7.10;;;1.27;;
26965;SDS011;14522;52.068;4.414;2022-10-10T15:59:43;10.23;;;1.55;;
26965;SDS011;14522;52.068;4.414;2022-10-10T16:02:10;9.40;;;1.33;;
26965;SDS011;14522;52.068;4.414;2022-10-10T16:04:37;7.82;;;1.30;;
26965;SDS011;14522;52.068;4.414;2022-10-10T16:07:03;10.38;;;1.55;;
26965;SDS011;14522;52.068;4.414;2022-10-10T16:09:51;8.85;;;1.02;;
26965;SDS011;14522;52.068;4.414;2022-10-10T16:12:17;8.07;;;1.35;;
26965;SDS011;14522;52.068;4.414;2022-10-10T16:14:43;8.68;;;1.10;;
26965;SDS011;14522;52.068;4.414;2022-10-10T16:17:10;10.15;;;1.40;;
26965;SDS011;14522;52.068;4.414;2022-10-10T16:19:36;6.13;;;1.10;;
26965;SDS011;14522;52.068;4.414;2022-10-10T16:22:03;5.88;;;1.60;;
26965;SDS011;14522;52.068;4.414;2022-10-10T16:24:29;8.25;;;1.55;;
26965;SDS011;14522;52.068;4.414;2022-10-10T16:26:55;6.65;;;1.00;;
26965;SDS011;14522;52.068;4.414;2022-10-10T16:29:24;12.88;;;1.52;;
26965;SDS011;14522;52.068;4.414;2022-10-10T16:31:51;7.80;;;1.30;;
26965;SDS011;14522;52.068;4.414;2022-10-10T16:34:17;7.63;;;1.20;;
26965;SDS011;14522;52.068;4.414;2022-10-10T16:36:44;5.28;;;1.20;;
26965;SDS011;14522;52.068;4.414;2022-10-10T16:39:10;11.90;;;1.77;;
26965;SDS011;14522;52.068;4.414;2022-10-10T16:41:38;9.15;;;1.25;;
26965;SDS011;14522;52.068;4.414;2022-10-10T16:44:14;15.20;;;2.15;;
26965;SDS011;14522;52.068;4.414;2022-10-10T16:46:40;13.20;;;2.20;;
26965;SDS011;14522;52.068;4.414;2022-10-10T16:49:08;4.57;;;0.98;;
26965;SDS011;14522;52.068;4.414;2022-10-10T16:51:35;8.57;;;1.27;;
26965;SDS011;14522;52.068;4.414;2022-10-10T16:54:02;7.53;;;1.52;;
26965;SDS011;14522;52.068;4.414;2022-10-10T16:56:30;16.30;;;4.38;;
26965;SDS011;14522;52.068;4.414;2022-10-10T16:58:58;19.52;;;3.33;;
26965;SDS011;14522;52.068;4.414;2022-10-10T17:01:24;11.50;;;1.92;;
26965;SDS011;14522;52.068;4.414;2022-10-10T17:03:51;9.90;;;2.08;;
26965;SDS011;14522;52.068;4.414;2022-10-10T17:06:18;7.20;;;2.15;;